sensor_id;sensor_type;location;lat;lon;timestamp;P1;durP1;ratioP1;P2;durP2;ratioP2
27436;SDS011;14886;51.586;6.722;2023-10-31T00:02:02;4.2;;;2.9;;
27436;SDS011;14886;51.586;6.722;2023-10-31T00:07:03;4.7;;;2.3;;
27436;SDS011;14886;51.586;6.722;2023-10-31T00:12:05;6.9;;;4.3;;
27436;SDS011;14886;51.586;6.722;2023-10-31T00:17:06;5.6;;;2.8;;
27436;SDS011;14886;51.586;6.722;2023-10-31T00:22:07;6.7;;;3.1;;
27436;SDS011;14886;51.586;6.722;2023-10-31T00:27:08;4.4;;;2.3;;
27436;SDS011;14886;51.586;6.722;2023-10-31T00:32:10;6.1;;;3.3;;
27436;SDS011;14886;51.586;6.722;2023-10-31T00:37:11;5.9;;;3.8;;
27436;SDS011;14886;51.586;6.722;2023-10-31T00:42:12;5.2;;;2.9;;
27436;SDS011;14886;51.586;6.722;2023-10-31T00:47:13;4.7;;;2.4;;
27436;SDS011;14886;51.586;6.722;2023-10-31T00:52:15;3.9;;;2.6;;
27436;SDS011;14886;51.586;6.722;2023-10-31T00:57:16;3.2;;;2.3;;
27436;SDS011;14886;51.586;6.722;2023-10-31T01:02:17;3.3;;;1.9;;
27436;SDS011;14886;51.586;6.722;2023-10-31T01:07:18;2.7;;;2.1;;
27436;SDS011;14886;51.586;6.722;2023-10-31T01:12:20;3.4;;;2.5;;
27436;SDS011;14886;51.586;6.722;2023-10-31T01:17:22;5.4;;;3.0;;
27436;SDS011;14886;51.586;6.722;2023-10-31T01:22:22;4.8;;;2.6;;
27436;SDS011;14886;51.586;6.722;2023-10-31T01:27:23;6.0;;;3.6;;
27436;SDS011;14886;51.586;6.722;2023-10-31T01:32:25;4.6;;;3.0;;
27436;SDS011;14886;51.586;6.722;2023-10-31T01:37:26;5.6;;;3.4;;
27436;SDS011;14886;51.586;6.722;2023-10-31T01:42:27;8.9;;;4.6;;
27436;SDS011;14886;51.586;6.722;2023-10-31T01:47:28;8.6;;;4.5;;
27436;SDS011;14886;51.586;6.722;2023-10-31T01:52:30;10.5;;;5.9;;
27436;SDS011;14886;51.586;6.722;2023-10-31T01:57:31;8.8;;;5.1;;
27436;SDS011;14886;51.586;6.722;2023-10-31T02:02:32;11.1;;;6.3;;
27436;SDS011;14886;51.586;6.722;2023-10-31T02:07:33;9.8;;;6.0;;
27436;SDS011;14886;51.586;6.722;2023-10-31T02:12:35;12.8;;;6.8;;
27436;SDS011;14886;51.586;6.722;2023-10-31T02:17:36;13.3;;;7.5;;
27436;SDS011;14886;51.586;6.722;2023-10-31T02:22:37;19.1;;;9.2;;
27436;SDS011;14886;51.586;6.722;2023-10-31T02:27:38;13.8;;;8.2;;
27436;SDS011;14886;51.586;6.722;2023-10-31T02:32:39;14.6;;;7.9;;
27436;SDS011;14886;51.586;6.722;2023-10-31T02:37:41;12.5;;;7.6;;
27436;SDS011;14886;51.586;6.722;2023-10-31T02:42:42;13.6;;;8.1;;
27436;SDS011;14886;51.586;6.722;2023-10-31T02:47:43;12.0;;;7.2;;
27436;SDS011;14886;51.586;6.722;2023-10-31T02:52:44;13.1;;;7.2;;
27436;SDS011;14886;51.586;6.722;2023-10-31T02:57:46;17.6;;;8.2;;
27436;SDS011;14886;51.586;6.722;2023-10-31T03:02:47;17.3;;;8.5;;
27436;SDS011;14886;51.586;6.722;2023-10-31T03:07:48;18.2;;;10.2;;
27436;SDS011;14886;51.586;6.722;2023-10-31T03:12:49;22.3;;;10.7;;
27436;SDS011;14886;51.586;6.722;2023-10-31T03:17:50;20.7;;;10.6;;
27436;SDS011;14886;51.586;6.722;2023-10-31T03:22:52;17.6;;;9.4;;
27436;SDS011;14886;51.586;6.722;2023-10-31T03:27:53;20.3;;;10.9;;
27436;SDS011;14886;51.586;6.722;2023-10-31T03:32:54;20.7;;;10.3;;
27436;SDS011;14886;51.586;6.722;2023-10-31T03:37:55;23.6;;;10.9;;
27436;SDS011;14886;51.586;6.722;2023-10-31T03:42:57;20.5;;;10.8;;
27436;SDS011;14886;51.586;6.722;2023-10-31T03:47:58;22.6;;;11.8;;
27436;SDS011;14886;51.586;6.722;2023-10-31T03:52:59;17.9;;;9.3;;
27436;SDS011;14886;51.586;6.722;2023-10-31T03:58:00;16.1;;;7.9;;
27436;SDS011;14886;51.586;6.722;2023-10-31T04:03:01;12.9;;;6.9;;
27436;SDS011;14886;51.586;6.722;2023-10-31T04:08:03;10.9;;;6.8;;
27436;SDS011;14886;51.586;6.722;2023-10-31T04:13:04;11.1;;;6.7;;
27436;SDS011;14886;51.586;6.722;2023-10-31T04:18:05;14.1;;;7.6;;
27436;SDS011;14886;51.586;6.722;2023-10-31T04:23:07;11.4;;;5.5;;
27436;SDS011;14886;51.586;6.722;2023-10-31T04:28:07;15.2;;;6.1;;
27436;SDS011;14886;51.586;6.722;2023-10-31T04:33:09;12.2;;;6.6;;
27436;SDS011;14886;51.586;6.722;2023-10-31T04:38:15;11.5;;;6.1;;
27436;SDS011;14886;51.586;6.722;2023-10-31T04:43:11;12.5;;;5.5;;
27436;SDS011;14886;51.586;6.722;2023-10-31T04:48:13;14.2;;;7.2;;
27436;SDS011;14886;51.586;6.722;2023-10-31T04:53:14;11.9;;;6.1;;
27436;SDS011;14886;51.586;6.722;2023-10-31T04:58:15;14.7;;;7.6;;
27436;SDS011;14886;51.586;6.722;2023-10-31T05:03:16;15.8;;;7.1;;
27436;SDS011;14886;51.586;6.722;2023-10-31T05:08:17;12.7;;;7.5;;
27436;SDS011;14886;51.586;6.722;2023-10-31T05:13:19;12.8;;;8.0;;
27436;SDS011;14886;51.586;6.722;2023-10-31T05:23:21;14.6;;;7.6;;
27436;SDS011;14886;51.586;6.722;2023-10-31T05:28:22;13.3;;;7.3;;
27436;SDS011;14886;51.586;6.722;2023-10-31T05:33:24;19.2;;;8.9;;
27436;SDS011;14886;51.586;6.722;2023-10-31T05:38:25;14.7;;;7.1;;
27436;SDS011;14886;51.586;6.722;2023-10-31T05:43:26;15.3;;;7.2;;
27436;SDS011;14886;51.586;6.722;2023-10-31T05:48:27;16.9;;;8.2;;
27436;SDS011;14886;51.586;6.722;2023-10-31T05:53:28;17.9;;;9.1;;
27436;SDS011;14886;51.586;6.722;2023-10-31T05:58:30;15.7;;;7.8;;
27436;SDS011;14886;51.586;6.722;2023-10-31T06:03:31;19.9;;;11.2;;
27436;SDS011;14886;51.586;6.722;2023-10-31T06:08:32;23.5;;;10.7;;
27436;SDS011;14886;51.586;6.722;2023-10-31T06:13:33;26.0;;;12.0;;
27436;SDS011;14886;51.586;6.722;2023-10-31T06:18:35;22.8;;;11.1;;
27436;SDS011;14886;51.586;6.722;2023-10-31T06:23:36;28.2;;;11.7;;
27436;SDS011;14886;51.586;6.722;2023-10-31T06:28:37;17.5;;;9.1;;
27436;SDS011;14886;51.586;6.722;2023-10-31T06:33:38;23.2;;;12.4;;
27436;SDS011;14886;51.586;6.722;2023-10-31T06:38:39;24.3;;;12.1;;
27436;SDS011;14886;51.586;6.722;2023-10-31T06:43:41;23.8;;;12.0;;
27436;SDS011;14886;51.586;6.722;2023-10-31T06:48:42;19.3;;;10.1;;
27436;SDS011;14886;51.586;6.722;2023-10-31T06:53:43;21.3;;;11.4;;
27436;SDS011;14886;51.586;6.722;2023-10-31T06:58:44;22.7;;;10.5;;
27436;SDS011;14886;51.586;6.722;2023-10-31T07:03:47;18.6;;;9.7;;
27436;SDS011;14886;51.586;6.722;2023-10-31T07:08:47;16.1;;;9.4;;
27436;SDS011;14886;51.586;6.722;2023-10-31T07:13:48;15.1;;;7.4;;
27436;SDS011;14886;51.586;6.722;2023-10-31T07:18:49;15.7;;;8.0;;
27436;SDS011;14886;51.586;6.722;2023-10-31T07:23:50;16.0;;;7.5;;
27436;SDS011;14886;51.586;6.722;2023-10-31T07:28:52;14.1;;;6.9;;
27436;SDS011;14886;51.586;6.722;2023-10-31T07:38:54;9.5;;;5.6;;
27436;SDS011;14886;51.586;6.722;2023-10-31T07:43:55;13.2;;;7.3;;
27436;SDS011;14886;51.586;6.722;2023-10-31T07:48:56;13.9;;;7.5;;
27436;SDS011;14886;51.586;6.722;2023-10-31T07:53:57;14.3;;;7.8;;
27436;SDS011;14886;51.586;6.722;2023-10-31T07:58:59;13.6;;;7.5;;
27436;SDS011;14886;51.586;6.722;2023-10-31T08:04:00;10.8;;;7.3;;
27436;SDS011;14886;51.586;6.722;2023-10-31T08:09:01;14.2;;;7.7;;
27436;SDS011;14886;51.586;6.722;2023-10-31T08:14:02;14.1;;;8.9;;
27436;SDS011;14886;51.586;6.722;2023-10-31T08:19:04;15.0;;;8.2;;
27436;SDS011;14886;51.586;6.722;2023-10-31T08:24:05;14.0;;;8.3;;
27436;SDS011;14886;51.586;6.722;2023-10-31T08:29:06;13.2;;;7.5;;
27436;SDS011;14886;51.586;6.722;2023-10-31T08:34:07;10.7;;;7.6;;
27436;SDS011;14886;51.586;6.722;2023-10-31T08:39:08;12.0;;;8.0;;
27436;SDS011;14886;51.586;6.722;2023-10-31T08:44:09;14.7;;;7.9;;
27436;SDS011;14886;51.586;6.722;2023-10-31T08:49:11;11.9;;;8.4;;
27436;SDS011;14886;51.586;6.722;2023-10-31T08:54:12;11.7;;;7.7;;
27436;SDS011;14886;51.586;6.722;2023-10-31T08:59:13;11.3;;;6.8;;
27436;SDS011;14886;51.586;6.722;2023-10-31T09:04:14;11.4;;;6.8;;
27436;SDS011;14886;51.586;6.722;2023-10-31T09:09:15;10.5;;;7.2;;
27436;SDS011;14886;51.586;6.722;2023-10-31T09:14:16;9.0;;;6.0;;
27436;SDS011;14886;51.586;6.722;2023-10-31T09:19:18;9.8;;;5.6;;
27436;SDS011;14886;51.586;6.722;2023-10-31T09:24:19;7.3;;;5.2;;
27436;SDS011;14886;51.586;6.722;2023-10-31T09:29:20;8.5;;;5.2;;
27436;SDS011;14886;51.586;6.722;2023-10-31T09:34:21;7.3;;;3.8;;
27436;SDS011;14886;51.586;6.722;2023-10-31T09:44:24;7.8;;;4.7;;
27436;SDS011;14886;51.586;6.722;2023-10-31T09:49:25;8.5;;;5.4;;
27436;SDS011;14886;51.586;6.722;2023-10-31T09:54:26;9.2;;;5.3;;
27436;SDS011;14886;51.586;6.722;2023-10-31T09:59:27;10.1;;;5.3;;
27436;SDS011;14886;51.586;6.722;2023-10-31T10:04:29;9.5;;;5.5;;
27436;SDS011;14886;51.586;6.722;2023-10-31T10:09:30;10.3;;;6.7;;
27436;SDS011;14886;51.586;6.722;2023-10-31T10:14:31;15.1;;;6.5;;
27436;SDS011;14886;51.586;6.722;2023-10-31T10:19:32;11.1;;;6.4;;
27436;SDS011;14886;51.586;6.722;2023-10-31T10:24:33;11.0;;;6.9;;
27436;SDS011;14886;51.586;6.722;2023-10-31T10:29:35;13.2;;;7.5;;
27436;SDS011;14886;51.586;6.722;2023-10-31T10:34:36;12.1;;;6.3;;
27436;SDS011;14886;51.586;6.722;2023-10-31T10:39:37;11.8;;;7.1;;
27436;SDS011;14886;51.586;6.722;2023-10-31T10:44:38;12.4;;;6.0;;
27436;SDS011;14886;51.586;6.722;2023-10-31T10:49:41;10.7;;;5.7;;
27436;SDS011;14886;51.586;6.722;2023-10-31T10:54:43;14.4;;;7.2;;
27436;SDS011;14886;51.586;6.722;2023-10-31T10:59:42;14.6;;;6.5;;
27436;SDS011;14886;51.586;6.722;2023-10-31T11:04:43;13.6;;;6.9;;
27436;SDS011;14886;51.586;6.722;2023-10-31T11:09:44;9.7;;;6.4;;
27436;SDS011;14886;51.586;6.722;2023-10-31T11:14:45;11.7;;;6.2;;
27436;SDS011;14886;51.586;6.722;2023-10-31T11:19:46;11.5;;;6.4;;
27436;SDS011;14886;51.586;6.722;2023-10-31T11:24:48;13.2;;;5.5;;
27436;SDS011;14886;51.586;6.722;2023-10-31T11:29:49;12.1;;;5.7;;
27436;SDS011;14886;51.586;6.722;2023-10-31T11:34:50;9.2;;;4.9;;
27436;SDS011;14886;51.586;6.722;2023-10-31T11:44:54;11.3;;;5.1;;
27436;SDS011;14886;51.586;6.722;2023-10-31T11:49:53;9.8;;;4.2;;
27436;SDS011;14886;51.586;6.722;2023-10-31T11:54:55;7.8;;;4.4;;
27436;SDS011;14886;51.586;6.722;2023-10-31T11:59:56;9.2;;;4.2;;
27436;SDS011;14886;51.586;6.722;2023-10-31T12:09:58;7.4;;;3.4;;
27436;SDS011;14886;51.586;6.722;2023-10-31T12:15:04;6.8;;;3.0;;
27436;SDS011;14886;51.586;6.722;2023-10-31T12:20:03;8.6;;;3.3;;
27436;SDS011;14886;51.586;6.722;2023-10-31T12:25:02;8.5;;;3.5;;
27436;SDS011;14886;51.586;6.722;2023-10-31T12:30:03;6.1;;;3.4;;
27436;SDS011;14886;51.586;6.722;2023-10-31T12:35:04;6.0;;;3.6;;
27436;SDS011;14886;51.586;6.722;2023-10-31T12:40:06;5.2;;;3.2;;
27436;SDS011;14886;51.586;6.722;2023-10-31T12:45:07;6.6;;;3.5;;
27436;SDS011;14886;51.586;6.722;2023-10-31T12:50:09;5.6;;;3.3;;
27436;SDS011;14886;51.586;6.722;2023-10-31T12:55:12;6.2;;;2.4;;
27436;SDS011;14886;51.586;6.722;2023-10-31T13:00:11;4.2;;;2.9;;
27436;SDS011;14886;51.586;6.722;2023-10-31T13:05:12;5.6;;;2.2;;
27436;SDS011;14886;51.586;6.722;2023-10-31T13:10:13;5.0;;;2.2;;
27436;SDS011;14886;51.586;6.722;2023-10-31T13:15:14;3.8;;;2.2;;
27436;SDS011;14886;51.586;6.722;2023-10-31T13:20:16;2.7;;;1.8;;
27436;SDS011;14886;51.586;6.722;2023-10-31T13:25:17;3.8;;;2.3;;
27436;SDS011;14886;51.586;6.722;2023-10-31T13:30:18;2.5;;;1.6;;
27436;SDS011;14886;51.586;6.722;2023-10-31T13:35:19;4.0;;;1.9;;
27436;SDS011;14886;51.586;6.722;2023-10-31T13:40:20;6.7;;;2.0;;
27436;SDS011;14886;51.586;6.722;2023-10-31T13:45:22;5.4;;;1.9;;
27436;SDS011;14886;51.586;6.722;2023-10-31T13:50:23;2.4;;;1.5;;
27436;SDS011;14886;51.586;6.722;2023-10-31T13:55:24;4.8;;;1.7;;
27436;SDS011;14886;51.586;6.722;2023-10-31T14:00:25;5.3;;;1.8;;
27436;SDS011;14886;51.586;6.722;2023-10-31T14:05:26;3.9;;;1.7;;
27436;SDS011;14886;51.586;6.722;2023-10-31T14:10:28;4.3;;;1.8;;
27436;SDS011;14886;51.586;6.722;2023-10-31T14:15:29;3.0;;;1.6;;
27436;SDS011;14886;51.586;6.722;2023-10-31T14:20:30;6.2;;;2.1;;
27436;SDS011;14886;51.586;6.722;2023-10-31T14:25:32;4.6;;;1.7;;
27436;SDS011;14886;51.586;6.722;2023-10-31T14:30:33;2.5;;;1.3;;
27436;SDS011;14886;51.586;6.722;2023-10-31T14:35:34;4.3;;;1.2;;
27436;SDS011;14886;51.586;6.722;2023-10-31T14:40:35;2.6;;;1.3;;
27436;SDS011;14886;51.586;6.722;2023-10-31T14:45:37;3.4;;;1.4;;
27436;SDS011;14886;51.586;6.722;2023-10-31T14:50:38;5.1;;;1.4;;
27436;SDS011;14886;51.586;6.722;2023-10-31T14:55:39;3.2;;;1.3;;
27436;SDS011;14886;51.586;6.722;2023-10-31T15:05:42;2.8;;;1.3;;
27436;SDS011;14886;51.586;6.722;2023-10-31T15:10:43;5.2;;;1.5;;
27436;SDS011;14886;51.586;6.722;2023-10-31T15:15:44;4.3;;;1.5;;
27436;SDS011;14886;51.586;6.722;2023-10-31T15:20:45;4.2;;;1.8;;
27436;SDS011;14886;51.586;6.722;2023-10-31T15:25:46;2.1;;;1.0;;
27436;SDS011;14886;51.586;6.722;2023-10-31T15:30:48;3.3;;;1.4;;
27436;SDS011;14886;51.586;6.722;2023-10-31T15:35:49;3.9;;;1.4;;
27436;SDS011;14886;51.586;6.722;2023-10-31T15:40:50;5.8;;;1.6;;
27436;SDS011;14886;51.586;6.722;2023-10-31T15:45:52;2.6;;;1.6;;
27436;SDS011;14886;51.586;6.722;2023-10-31T15:50:53;7.6;;;2.0;;
27436;SDS011;14886;51.586;6.722;2023-10-31T15:55:54;3.3;;;2.1;;
27436;SDS011;14886;51.586;6.722;2023-10-31T16:00:55;3.7;;;1.6;;
27436;SDS011;14886;51.586;6.722;2023-10-31T16:05:57;3.2;;;1.6;;
27436;SDS011;14886;51.586;6.722;2023-10-31T16:10:58;6.0;;;2.0;;
27436;SDS011;14886;51.586;6.722;2023-10-31T16:15:59;2.8;;;2.1;;
27436;SDS011;14886;51.586;6.722;2023-10-31T16:21:00;4.3;;;2.1;;
27436;SDS011;14886;51.586;6.722;2023-10-31T16:26:02;6.3;;;2.2;;
27436;SDS011;14886;51.586;6.722;2023-10-31T16:31:03;6.1;;;2.5;;
27436;SDS011;14886;51.586;6.722;2023-10-31T16:36:05;13.0;;;3.8;;
27436;SDS011;14886;51.586;6.722;2023-10-31T16:41:05;4.5;;;2.3;;
27436;SDS011;14886;51.586;6.722;2023-10-31T16:46:07;4.0;;;2.4;;
27436;SDS011;14886;51.586;6.722;2023-10-31T16:51:13;4.7;;;2.3;;
27436;SDS011;14886;51.586;6.722;2023-10-31T16:56:09;7.2;;;2.6;;
27436;SDS011;14886;51.586;6.722;2023-10-31T17:01:11;6.6;;;3.1;;
27436;SDS011;14886;51.586;6.722;2023-10-31T17:06:12;4.9;;;2.3;;
27436;SDS011;14886;51.586;6.722;2023-10-31T17:11:13;4.6;;;2.4;;
27436;SDS011;14886;51.586;6.722;2023-10-31T17:16:14;6.2;;;2.4;;
27436;SDS011;14886;51.586;6.722;2023-10-31T17:21:15;5.9;;;2.7;;
27436;SDS011;14886;51.586;6.722;2023-10-31T17:26:16;6.5;;;3.4;;
27436;SDS011;14886;51.586;6.722;2023-10-31T17:31:18;4.3;;;2.8;;
27436;SDS011;14886;51.586;6.722;2023-10-31T17:41:20;5.2;;;2.9;;
27436;SDS011;14886;51.586;6.722;2023-10-31T17:46:21;6.9;;;3.2;;
27436;SDS011;14886;51.586;6.722;2023-10-31T17:51:22;6.0;;;3.5;;
27436;SDS011;14886;51.586;6.722;2023-10-31T17:56:24;6.8;;;3.6;;
27436;SDS011;14886;51.586;6.722;2023-10-31T18:01:25;5.9;;;3.5;;
27436;SDS011;14886;51.586;6.722;2023-10-31T18:06:26;7.3;;;3.6;;
27436;SDS011;14886;51.586;6.722;2023-10-31T18:11:27;7.6;;;3.9;;
27436;SDS011;14886;51.586;6.722;2023-10-31T18:16:29;7.5;;;4.3;;
27436;SDS011;14886;51.586;6.722;2023-10-31T18:21:31;10.0;;;4.2;;
27436;SDS011;14886;51.586;6.722;2023-10-31T18:26:31;8.3;;;4.4;;
27436;SDS011;14886;51.586;6.722;2023-10-31T18:31:32;7.4;;;4.1;;
27436;SDS011;14886;51.586;6.722;2023-10-31T18:36:34;10.5;;;4.6;;
27436;SDS011;14886;51.586;6.722;2023-10-31T18:41:35;8.5;;;4.8;;
27436;SDS011;14886;51.586;6.722;2023-10-31T18:46:36;6.4;;;3.9;;
27436;SDS011;14886;51.586;6.722;2023-10-31T18:51:37;8.3;;;4.0;;
27436;SDS011;14886;51.586;6.722;2023-10-31T18:56:39;11.1;;;5.0;;
27436;SDS011;14886;51.586;6.722;2023-10-31T19:01:40;8.3;;;5.0;;
27436;SDS011;14886;51.586;6.722;2023-10-31T19:06:41;9.9;;;5.1;;
27436;SDS011;14886;51.586;6.722;2023-10-31T19:16:44;11.0;;;6.0;;
27436;SDS011;14886;51.586;6.722;2023-10-31T19:21:45;9.6;;;5.2;;
27436;SDS011;14886;51.586;6.722;2023-10-31T19:26:46;8.6;;;5.7;;
27436;SDS011;14886;51.586;6.722;2023-10-31T19:36:49;8.2;;;4.9;;
27436;SDS011;14886;51.586;6.722;2023-10-31T19:41:50;11.7;;;5.4;;
27436;SDS011;14886;51.586;6.722;2023-10-31T19:46:51;11.2;;;5.6;;
27436;SDS011;14886;51.586;6.722;2023-10-31T19:51:52;12.8;;;6.2;;
27436;SDS011;14886;51.586;6.722;2023-10-31T19:56:54;9.5;;;5.2;;
27436;SDS011;14886;51.586;6.722;2023-10-31T20:01:55;9.3;;;5.6;;
27436;SDS011;14886;51.586;6.722;2023-10-31T20:06:56;9.1;;;4.9;;
27436;SDS011;14886;51.586;6.722;2023-10-31T20:11:57;10.2;;;5.8;;
27436;SDS011;14886;51.586;6.722;2023-10-31T20:22:00;9.7;;;6.9;;
27436;SDS011;14886;51.586;6.722;2023-10-31T20:27:01;11.2;;;5.7;;
27436;SDS011;14886;51.586;6.722;2023-10-31T20:32:03;11.8;;;5.0;;
27436;SDS011;14886;51.586;6.722;2023-10-31T20:37:04;10.8;;;5.4;;
27436;SDS011;14886;51.586;6.722;2023-10-31T20:42:05;10.9;;;5.6;;
27436;SDS011;14886;51.586;6.722;2023-10-31T20:47:06;11.5;;;5.9;;
27436;SDS011;14886;51.586;6.722;2023-10-31T20:52:07;10.7;;;5.3;;
27436;SDS011;14886;51.586;6.722;2023-10-31T20:57:08;14.0;;;6.4;;
27436;SDS011;14886;51.586;6.722;2023-10-31T21:02:10;10.0;;;5.2;;
27436;SDS011;14886;51.586;6.722;2023-10-31T21:07:11;12.2;;;5.2;;
27436;SDS011;14886;51.586;6.722;2023-10-31T21:12:12;13.0;;;5.3;;
27436;SDS011;14886;51.586;6.722;2023-10-31T21:17:14;10.0;;;4.6;;
27436;SDS011;14886;51.586;6.722;2023-10-31T21:22:15;11.6;;;5.0;;
27436;SDS011;14886;51.586;6.722;2023-10-31T21:27:16;10.6;;;5.1;;
27436;SDS011;14886;51.586;6.722;2023-10-31T21:32:17;9.0;;;4.7;;
27436;SDS011;14886;51.586;6.722;2023-10-31T21:37:19;10.9;;;5.3;;
27436;SDS011;14886;51.586;6.722;2023-10-31T21:42:20;9.9;;;4.9;;
27436;SDS011;14886;51.586;6.722;2023-10-31T21:47:21;14.9;;;5.0;;
27436;SDS011;14886;51.586;6.722;2023-10-31T21:52:22;12.7;;;4.9;;
27436;SDS011;14886;51.586;6.722;2023-10-31T21:57:24;12.1;;;5.2;;
27436;SDS011;14886;51.586;6.722;2023-10-31T22:02:25;15.0;;;5.7;;
27436;SDS011;14886;51.586;6.722;2023-10-31T22:07:26;11.3;;;4.8;;
27436;SDS011;14886;51.586;6.722;2023-10-31T22:12:27;12.4;;;4.7;;
27436;SDS011;14886;51.586;6.722;2023-10-31T22:17:28;13.8;;;5.3;;
27436;SDS011;14886;51.586;6.722;2023-10-31T22:22:30;9.3;;;5.0;;
27436;SDS011;14886;51.586;6.722;2023-10-31T22:27:31;7.2;;;4.5;;
27436;SDS011;14886;51.586;6.722;2023-10-31T22:32:32;9.6;;;4.4;;
27436;SDS011;14886;51.586;6.722;2023-10-31T22:37:33;14.0;;;4.1;;
27436;SDS011;14886;51.586;6.722;2023-10-31T22:42:35;11.0;;;4.0;;
27436;SDS011;14886;51.586;6.722;2023-10-31T22:47:36;8.3;;;3.8;;
27436;SDS011;14886;51.586;6.722;2023-10-31T22:52:38;10.6;;;4.1;;
27436;SDS011;14886;51.586;6.722;2023-10-31T22:57:38;10.7;;;4.1;;
27436;SDS011;14886;51.586;6.722;2023-10-31T23:02:40;11.1;;;3.7;;
27436;SDS011;14886;51.586;6.722;2023-10-31T23:07:41;6.9;;;4.2;;
27436;SDS011;14886;51.586;6.722;2023-10-31T23:12:42;8.4;;;3.6;;
27436;SDS011;14886;51.586;6.722;2023-10-31T23:17:43;10.5;;;3.7;;
27436;SDS011;14886;51.586;6.722;2023-10-31T23:22:45;12.3;;;3.4;;
27436;SDS011;14886;51.586;6.722;2023-10-31T23:27:46;11.9;;;3.8;;
27436;SDS011;14886;51.586;6.722;2023-10-31T23:32:47;9.4;;;3.5;;
27436;SDS011;14886;51.586;6.722;2023-10-31T23:37:48;9.0;;;3.4;;
27436;SDS011;14886;51.586;6.722;2023-10-31T23:42:50;7.0;;;2.9;;
27436;SDS011;14886;51.586;6.722;2023-10-31T23:47:51;7.2;;;2.9;;
27436;SDS011;14886;51.586;6.722;2023-10-31T23:52:52;7.6;;;3.5;;
27436;SDS011;14886;51.586;6.722;2023-10-31T23:57:53;8.3;;;3.3;;
